Pagrindinis puslapis
METAR-TAF:

METAR-TAF

Oro uostai :

Eliazihas, Turkija

platuma: 38-36N, ilguma: 039-17E, Aukštis: 902 m

Dabartinis oras

Ataskaita buvo paskelbta 29 minutes, ne 06:50 UTC
Vėjas 6 kt iš Rytų, svyruoja nuo Šiaurės Rytų ir Rytų/Pietryčių
Temperatūra 24°C
Drėgmė 27%
Slėgis 1016 hPa
Matomumas 10 km arba daugiau
nėra debesų žemiau 1500 m ir nėra kamuolinių lietaus debesų

METAR: LTCA 140650Z 09006KT 050V120 CAVOK 24/04 Q1016 NOSIG

Laikas: 10:19 (07:19 UTC)

Prognozė

Ataskaita buvo paskelbta 2 valandos ir 39 minutes, ne 04:40 UTC
Prognozė galioja nuo 14 metu 06 UTC su 14 metu 15 UTC
Vėjas 2 kt nuo kintamojo kryptimis
Matomumas 10 km arba daugiau
nėra debesų žemiau 1500 m ir nėra kamuolinių lietaus debesų
Tapsmas
nuo 14 metu 10 UTC su 14 metu 13 UTC
Vėjas 15 kt iš Vakarų/Pietvakarių

TAF: LTCA 140440Z 1406/1415 VRB02KT CAVOK BECMG 1410/1413 24015KT

Orai ataskaitas ir orų prognozės (METAR, TAF).

turimą stotys yra geltonos ir raudonos taškus žemėlapyje.

Perkelti pele per norėdami pamatyti stoties vardą.

Tada spustelėkite, norėdami matyti oro stebėjimo ir prognozės.

Norėdami pakeisti žemėlapį: spustelėkite ant žalios mygtukų su juodo kryžiaus žemyn,; žalią mygtuką su brūkšneliu, jei norite nutolinti; arba žalių rodyklių gretimoms žemėlapius.


METAR-TAF: